createdAt,value
2022-09-20T00:01:36.025Z,98729.00
2022-09-20T00:04:07.537Z,98732.20
2022-09-20T00:06:35.623Z,98741.40
2022-09-20T00:09:05.007Z,98746.20
2022-09-20T00:11:35.447Z,98740.60
2022-09-20T00:14:08.823Z,98747.60
2022-09-20T00:16:40.914Z,98748.60
2022-09-20T00:19:17.971Z,98745.40
2022-09-20T00:21:45.681Z,98748.60
2022-09-20T00:24:13.996Z,98749.60
2022-09-20T00:26:41.695Z,98749.00
2022-09-20T00:29:09.330Z,98746.00
2022-09-20T00:31:39.126Z,98747.60
2022-09-20T00:34:25.807Z,98749.60
2022-09-20T00:36:53.391Z,98751.60
2022-09-20T00:39:21.092Z,98751.40
2022-09-20T00:41:48.744Z,98755.40
2022-09-20T00:44:53.592Z,98751.20
2022-09-20T00:47:55.116Z,98756.80
2022-09-20T00:50:34.865Z,98758.60
2022-09-20T00:53:24.721Z,98757.40
2022-09-20T00:56:03.941Z,98760.20
2022-09-20T00:58:39.831Z,98759.20
2022-09-20T01:01:07.817Z,98758.60
2022-09-20T01:03:39.255Z,98759.20
2022-09-20T01:06:13.736Z,98759.20
2022-09-20T01:08:48.695Z,98763.80
2022-09-20T01:11:16.877Z,98760.60
2022-09-20T01:13:44.413Z,98759.80
2022-09-20T01:16:15.774Z,98755.20
2022-09-20T01:18:45.356Z,98752.40
2022-09-20T01:21:14.275Z,98749.80
2022-09-20T01:24:32.683Z,98748.20
2022-09-20T01:27:26.716Z,98753.80
2022-09-20T01:30:09.547Z,98751.40
2022-09-20T01:32:50.673Z,98754.00
2022-09-20T01:35:21.392Z,98753.60
2022-09-20T01:38:32.105Z,98742.20
2022-09-20T01:41:36.646Z,98753.20
2022-09-20T01:44:16.325Z,98749.60
2022-09-20T01:46:45.890Z,98746.80
2022-09-20T01:49:57.198Z,98747.40
2022-09-20T01:53:05.486Z,98750.40
2022-09-20T01:55:51.606Z,98749.60
2022-09-20T01:58:40.514Z,98749.40
2022-09-20T02:01:45.472Z,98755.60
2022-09-20T02:04:58.540Z,98757.60
2022-09-20T02:07:56.796Z,98761.80
2022-09-20T02:11:04.109Z,98766.80
2022-09-20T02:13:48.659Z,98766.80
2022-09-20T02:16:52.202Z,98767.60
2022-09-20T02:20:15.791Z,98765.60
2022-09-20T02:23:29.121Z,98769.80
2022-09-20T02:26:15.247Z,98769.60
2022-09-20T02:28:55.968Z,98773.00
2022-09-20T02:31:56.329Z,98764.60
2022-09-20T02:34:49.590Z,98770.40
2022-09-20T02:37:54.108Z,98773.80
2022-09-20T02:40:46.321Z,98775.60
2022-09-20T02:43:49.876Z,98780.60
2022-09-20T02:46:28.704Z,98779.80
2022-09-20T02:49:36.203Z,98780.40
2022-09-20T02:52:41.517Z,98777.80
2022-09-20T02:55:32.356Z,98780.00
2022-09-20T02:58:35.311Z,98781.00
2022-09-20T03:01:24.133Z,98784.80
2022-09-20T03:04:23.557Z,98783.80
2022-09-20T03:07:33.091Z,98784.20
2022-09-20T03:10:33.212Z,98787.60
2022-09-20T03:13:27.648Z,98793.40
2022-09-20T03:16:31.796Z,98791.80
2022-09-20T03:19:25.910Z,98800.60
2022-09-20T03:22:39.832Z,98797.20
2022-09-20T03:25:59.526Z,98800.20
2022-09-20T03:29:01.055Z,98798.40
2022-09-20T03:31:42.676Z,98805.60
2022-09-20T03:35:11.449Z,98798.80
2022-09-20T03:37:51.096Z,98801.40
2022-09-20T03:40:46.896Z,98800.20
2022-09-20T03:43:29.342Z,98795.20
2022-09-20T03:46:19.652Z,98790.00
2022-09-20T03:49:11.468Z,98792.40
2022-09-20T03:52:14.008Z,98795.20
2022-09-20T03:55:10.193Z,98797.80
2022-09-20T03:57:59.716Z,98795.80
2022-09-20T04:01:17.513Z,98799.20
2022-09-20T04:04:22.970Z,98797.20
2022-09-20T04:07:44.326Z,98798.40
2022-09-20T04:10:53.824Z,98800.80
2022-09-20T04:13:47.819Z,98805.80
2022-09-20T04:16:41.035Z,98808.20
2022-09-20T04:19:33.304Z,98812.80
2022-09-20T04:22:02.315Z,98811.80
2022-09-20T04:24:33.368Z,98814.60
2022-09-20T04:27:31.436Z,98814.00
2022-09-20T04:30:21.400Z,98816.60
2022-09-20T04:33:08.452Z,98818.80
2022-09-20T04:36:20.517Z,98824.00
2022-09-20T04:39:03.309Z,98823.60
2022-09-20T04:42:15.328Z,98825.20
2022-09-20T04:45:23.171Z,98832.60
2022-09-20T04:48:25.331Z,98831.40
2022-09-20T04:51:13.251Z,98834.20
2022-09-20T04:54:10.237Z,98833.00
2022-09-20T04:57:17.711Z,98841.00
2022-09-20T05:00:09.286Z,98838.80
2022-09-20T05:03:06.837Z,98843.00
2022-09-20T05:05:57.340Z,98844.00
2022-09-20T05:09:02.327Z,98841.60
2022-09-20T05:11:54.477Z,98848.40
2022-09-20T05:15:08.621Z,98850.20
2022-09-20T05:18:23.692Z,98848.40
2022-09-20T05:21:12.430Z,98845.80
2022-09-20T05:24:08.379Z,98855.20
2022-09-20T05:27:06.301Z,98855.20
2022-09-20T05:29:51.543Z,98861.00
2022-09-20T05:32:55.712Z,98860.60
2022-09-20T05:35:38.580Z,98862.80
2022-09-20T05:41:56.353Z,98866.20
2022-09-20T05:44:54.669Z,98868.80
2022-09-20T05:48:13.609Z,98877.60
2022-09-20T05:51:03.859Z,98878.80
2022-09-20T05:54:19.449Z,98877.60
2022-09-20T05:57:07.568Z,98882.80
2022-09-20T06:00:07.674Z,98886.60
2022-09-20T06:02:56.900Z,98882.80
2022-09-20T06:06:01.415Z,98888.20
2022-09-20T06:09:09.032Z,98888.40
2022-09-20T06:12:07.383Z,98885.60
2022-09-20T06:15:00.189Z,98888.80
2022-09-20T06:17:42.440Z,98890.40
2022-09-20T06:20:25.692Z,98894.00
2022-09-20T06:23:00.816Z,98900.20
2022-09-20T06:25:42.940Z,98903.00
2022-09-20T06:28:19.025Z,98897.60
2022-09-20T06:30:53.135Z,98899.00
2022-09-20T06:33:27.071Z,98900.80
2022-09-20T06:36:24.155Z,98897.60
2022-09-20T06:39:35.399Z,98897.60
2022-09-20T06:42:03.177Z,98898.80
2022-09-20T06:44:31.223Z,98900.00
2022-09-20T06:46:59.641Z,98906.20
2022-09-20T06:49:29.200Z,98908.20
2022-09-20T06:51:57.536Z,98905.60
2022-09-20T06:54:27.106Z,98906.80
2022-09-20T06:56:55.355Z,98907.60
2022-09-20T06:59:22.962Z,98912.40
2022-09-20T07:01:50.593Z,98913.20
2022-09-20T07:04:18.236Z,98917.80
2022-09-20T07:06:45.741Z,98919.00
2022-09-20T07:09:13.334Z,98926.20
2022-09-20T07:11:41.016Z,98925.60
2022-09-20T07:14:08.581Z,98928.40
2022-09-20T07:16:37.347Z,98927.40
2022-09-20T07:19:06.650Z,98928.00
2022-09-20T07:21:34.209Z,98924.60
2022-09-20T07:24:02.424Z,98928.40
2022-09-20T07:26:31.907Z,98929.20
2022-09-20T07:29:01.160Z,98936.60
2022-09-20T07:31:30.078Z,98938.40
2022-09-20T07:33:58.652Z,98947.00
2022-09-20T07:36:26.269Z,98947.80
2022-09-20T07:38:53.972Z,98950.40
2022-09-20T07:41:23.019Z,98953.00
2022-09-20T07:43:51.119Z,98953.60
2022-09-20T07:46:23.461Z,98953.60
2022-09-20T07:48:51.400Z,98959.80
2022-09-20T07:51:19.000Z,98958.20
2022-09-20T07:53:47.056Z,98964.40
2022-09-20T07:56:48.960Z,98969.40
2022-09-20T07:59:16.847Z,98976.00
2022-09-20T08:01:44.510Z,98973.00
2022-09-20T08:04:12.295Z,98976.20
2022-09-20T08:06:43.856Z,98975.80
2022-09-20T08:09:13.758Z,98981.60
2022-09-20T08:11:43.610Z,98980.20
2022-09-20T08:14:17.771Z,98977.00
2022-09-20T08:16:48.687Z,98979.20
2022-09-20T08:19:21.105Z,98982.80
2022-09-20T08:21:52.576Z,98983.20
2022-09-20T08:24:20.881Z,98983.20
2022-09-20T08:26:48.870Z,98982.40
2022-09-20T08:29:16.753Z,98985.20
2022-09-20T08:31:44.588Z,98983.20
2022-09-20T08:34:15.192Z,98984.40
2022-09-20T08:36:51.860Z,98985.60
2022-09-20T08:42:35.747Z,98987.80
2022-09-20T08:45:34.795Z,98988.00
2022-09-20T08:48:14.424Z,98993.00
2022-09-20T08:50:42.366Z,98991.60
2022-09-20T08:53:14.865Z,98994.80
2022-09-20T08:55:43.515Z,98998.00
2022-09-20T08:58:13.540Z,98996.00
2022-09-20T09:00:47.000Z,98999.20
2022-09-20T09:03:17.865Z,98999.80
2022-09-20T09:05:52.982Z,98996.00
2022-09-20T09:08:43.433Z,98998.80
2022-09-20T09:11:17.396Z,98999.40
2022-09-20T09:13:56.901Z,98995.80
2022-09-20T09:16:35.277Z,99001.00
2022-09-20T09:19:33.826Z,99000.00
2022-09-20T09:22:05.693Z,99002.80
2022-09-20T09:24:33.742Z,98996.80
2022-09-20T09:27:19.714Z,98998.40
2022-09-20T09:29:56.100Z,98998.40
2022-09-20T09:32:32.811Z,98997.80
2022-09-20T09:35:37.212Z,98995.00
2022-09-20T09:38:04.830Z,98997.40
2022-09-20T09:40:33.342Z,98996.00
2022-09-20T09:43:04.114Z,98996.40
2022-09-20T09:45:39.244Z,98999.20
2022-09-20T09:48:31.295Z,99001.80
2022-09-20T09:51:28.072Z,99006.00
2022-09-20T09:53:56.598Z,99005.20
2022-09-20T09:57:15.868Z,99004.40
2022-09-20T10:00:20.817Z,99004.40
2022-09-20T10:03:38.622Z,99002.60
2022-09-20T10:06:30.554Z,98996.40
2022-09-20T10:09:25.772Z,98999.40
2022-09-20T10:12:30.402Z,99002.60
2022-09-20T10:15:10.493Z,98996.20
2022-09-20T10:18:20.310Z,99002.80
2022-09-20T10:21:43.573Z,99001.80
2022-09-20T10:24:38.325Z,99005.20
2022-09-20T10:27:21.609Z,99009.60
2022-09-20T10:30:17.094Z,99010.00
2022-09-20T10:33:03.154Z,99002.40
2022-09-20T10:36:00.120Z,98999.60
2022-09-20T10:38:55.460Z,98998.00
2022-09-20T10:42:12.624Z,98998.80
2022-09-20T10:45:43.984Z,99001.40
2022-09-20T10:48:31.752Z,98994.00
2022-09-20T10:51:31.553Z,99000.80
2022-09-20T10:54:24.885Z,99001.60
2022-09-20T10:57:50.623Z,99001.60
2022-09-20T11:00:42.247Z,99003.00
2022-09-20T11:03:46.194Z,99013.40
2022-09-20T11:06:31.779Z,99007.80
2022-09-20T11:09:03.776Z,99012.60
2022-09-20T11:11:48.024Z,99008.60
2022-09-20T11:14:51.098Z,99011.00
2022-09-20T11:17:36.324Z,99008.20
2022-09-20T11:20:32.577Z,99011.20
2022-09-20T11:23:16.059Z,99009.20
2022-09-20T11:25:51.891Z,99004.20
2022-09-20T11:28:49.096Z,99006.00
2022-09-20T11:31:47.362Z,99001.40
2022-09-20T11:34:28.187Z,99003.40
2022-09-20T11:37:00.779Z,98997.40
2022-09-20T11:39:47.125Z,98997.20
2022-09-20T11:42:32.870Z,98993.60
2022-09-20T11:45:00.466Z,99004.00
2022-09-20T11:47:54.602Z,98999.20
2022-09-20T11:50:38.652Z,99003.00
2022-09-20T11:53:42.528Z,99010.40
2022-09-20T11:56:22.497Z,99002.00
2022-09-20T11:58:56.020Z,99001.60
2022-09-20T12:01:33.124Z,99000.60
2022-09-20T12:04:32.992Z,98997.40
2022-09-20T12:07:17.773Z,99000.80
2022-09-20T12:10:24.895Z,99000.40
2022-09-20T12:13:25.068Z,98994.20
2022-09-20T12:16:03.955Z,98990.20
2022-09-20T12:18:48.183Z,98978.40
2022-09-20T12:21:21.259Z,98981.80
2022-09-20T12:23:57.545Z,98978.60
2022-09-20T12:26:28.220Z,98982.00
2022-09-20T12:29:00.176Z,98981.40
2022-09-20T12:31:33.819Z,98980.20
2022-09-20T12:34:13.588Z,98983.40
2022-09-20T12:36:52.211Z,98981.00
2022-09-20T12:39:33.255Z,98985.40
2022-09-20T12:42:29.850Z,98989.40
2022-09-20T12:45:15.698Z,98982.00
2022-09-20T12:47:54.941Z,98986.80
2022-09-20T12:50:42.229Z,98975.00
2022-09-20T12:53:16.834Z,98971.20
2022-09-20T12:56:07.605Z,98974.00
2022-09-20T12:58:54.671Z,98967.20
2022-09-20T13:01:22.679Z,98969.20
2022-09-20T13:03:51.363Z,98974.40
2022-09-20T13:06:19.216Z,98973.80
2022-09-20T13:08:57.042Z,98978.40
2022-09-20T13:11:44.870Z,98977.60
2022-09-20T13:14:24.715Z,98972.80
2022-09-20T13:17:04.092Z,98980.00
2022-09-20T13:19:47.071Z,98979.00
2022-09-20T13:22:26.344Z,98979.60
2022-09-20T13:25:00.347Z,98981.00
2022-09-20T13:27:34.688Z,98979.60
2022-09-20T13:30:33.076Z,98978.60
2022-09-20T13:33:25.222Z,98979.80
2022-09-20T13:35:58.910Z,98973.40
2022-09-20T13:38:31.897Z,98975.80
2022-09-20T13:41:09.169Z,98978.80
2022-09-20T13:43:56.636Z,98983.40
2022-09-20T13:46:31.985Z,98986.20
2022-09-20T13:49:24.458Z,98989.60
2022-09-20T13:51:52.255Z,98984.60
2022-09-20T13:54:27.533Z,98987.40
2022-09-20T13:57:16.125Z,98985.00
2022-09-20T13:59:46.615Z,98981.80
2022-09-20T14:02:29.369Z,98985.80
2022-09-20T14:05:01.826Z,98988.20
2022-09-20T14:07:31.124Z,98989.40
2022-09-20T14:10:00.323Z,98992.80
2022-09-20T14:12:28.657Z,98994.40
2022-09-20T14:14:57.839Z,98992.60
2022-09-20T14:17:36.115Z,98990.60
2022-09-20T14:20:05.808Z,98999.60
2022-09-20T14:22:36.188Z,98996.00
2022-09-20T14:25:14.360Z,98994.60
2022-09-20T14:27:42.379Z,99000.00
2022-09-20T14:30:31.036Z,99001.00
2022-09-20T14:32:59.699Z,99006.00
2022-09-20T14:35:28.064Z,99003.80
2022-09-20T14:38:02.682Z,99003.40
2022-09-20T14:40:44.360Z,99006.00
2022-09-20T14:43:34.687Z,99004.80
2022-09-20T14:46:17.539Z,99004.20
2022-09-20T14:48:45.547Z,99006.00
2022-09-20T14:51:16.406Z,99010.60
2022-09-20T14:53:47.161Z,99011.60
2022-09-20T14:56:25.428Z,99018.40
2022-09-20T14:59:14.047Z,99012.80
2022-09-20T15:01:46.555Z,99013.00
2022-09-20T15:04:23.879Z,99018.60
2022-09-20T15:06:53.170Z,99020.40
2022-09-20T15:09:22.038Z,99025.00
2022-09-20T15:12:04.262Z,99025.60
2022-09-20T15:14:37.206Z,99028.20
2022-09-20T15:17:06.348Z,99020.40
2022-09-20T15:19:34.540Z,99025.40
2022-09-20T15:22:02.401Z,99021.20
2022-09-20T15:24:30.071Z,99019.00
2022-09-20T15:26:58.009Z,99021.20
2022-09-20T15:29:26.118Z,99030.00
2022-09-20T15:31:53.993Z,99034.80
2022-09-20T15:34:21.665Z,99032.40
2022-09-20T15:36:50.771Z,99036.00
2022-09-20T15:39:18.482Z,99040.40
2022-09-20T15:41:46.913Z,99050.00
2022-09-20T15:44:18.767Z,99051.20
2022-09-20T15:46:48.300Z,99053.00
2022-09-20T15:49:16.015Z,99058.00
2022-09-20T15:51:43.744Z,99062.80
2022-09-20T15:54:14.755Z,99060.40
2022-09-20T15:56:42.761Z,99061.00
2022-09-20T15:59:13.310Z,99064.00
2022-09-20T16:01:44.373Z,99060.40
2022-09-20T16:04:20.282Z,99059.80
2022-09-20T16:06:50.274Z,99061.20
2022-09-20T16:09:19.645Z,99060.00
2022-09-20T16:11:48.754Z,99063.00
2022-09-20T16:14:16.609Z,99069.40
2022-09-20T16:16:44.399Z,99070.40
2022-09-20T16:19:20.095Z,99073.00
2022-09-20T16:21:53.638Z,99078.20
2022-09-20T16:24:34.113Z,99080.60
2022-09-20T16:27:06.092Z,99083.20
2022-09-20T16:29:34.660Z,99088.60
2022-09-20T16:32:05.954Z,99097.80
2022-09-20T16:34:36.213Z,99101.80
2022-09-20T16:37:17.066Z,99106.40
2022-09-20T16:39:44.736Z,99106.80
2022-09-20T16:42:13.554Z,99110.20
2022-09-20T16:44:43.048Z,99110.40
2022-09-20T16:47:22.134Z,99115.00
2022-09-20T16:49:50.674Z,99121.80
2022-09-20T16:52:18.881Z,99123.00
2022-09-20T16:54:46.667Z,99120.80
2022-09-20T16:57:14.496Z,99127.00
2022-09-20T16:59:42.601Z,99125.60
2022-09-20T17:02:13.382Z,99132.40
2022-09-20T17:04:43.688Z,99134.00
2022-09-20T17:07:11.440Z,99136.00
2022-09-20T17:09:39.425Z,99137.40
2022-09-20T17:12:09.544Z,99145.60
2022-09-20T17:14:37.264Z,99142.00
2022-09-20T17:17:04.957Z,99147.60
2022-09-20T17:19:33.362Z,99154.60
2022-09-20T17:22:01.650Z,99157.20
2022-09-20T17:24:30.224Z,99163.40
2022-09-20T17:26:59.248Z,99158.00
2022-09-20T17:29:27.698Z,99161.20
2022-09-20T17:31:59.876Z,99167.40
2022-09-20T17:34:29.720Z,99170.20
2022-09-20T17:36:57.361Z,99171.40
2022-09-20T17:39:25.071Z,99170.40
2022-09-20T17:41:52.832Z,99173.00
2022-09-20T17:44:20.664Z,99182.40
2022-09-20T17:46:50.323Z,99186.80
2022-09-20T17:49:21.282Z,99189.40
2022-09-20T17:51:52.164Z,99190.00
2022-09-20T17:54:21.233Z,99196.00
2022-09-20T17:56:51.674Z,99199.20
2022-09-20T17:59:20.816Z,99203.20
2022-09-20T18:01:51.471Z,99207.20
2022-09-20T18:04:21.216Z,99211.20
2022-09-20T18:06:51.991Z,99214.00
2022-09-20T18:09:25.517Z,99222.00
2022-09-20T18:11:55.712Z,99224.60
2022-09-20T18:14:27.911Z,99226.60
2022-09-20T18:17:00.994Z,99223.20
2022-09-20T18:19:33.534Z,99228.80
2022-09-20T18:22:03.330Z,99231.20
2022-09-20T18:24:31.608Z,99235.00
2022-09-20T18:27:00.963Z,99234.20
2022-09-20T18:29:29.368Z,99234.00
2022-09-20T18:31:59.716Z,99235.20
2022-09-20T18:34:31.981Z,99235.00
2022-09-20T18:37:03.608Z,99234.00
2022-09-20T18:39:33.712Z,99230.00
2022-09-20T18:42:03.262Z,99240.60
2022-09-20T18:44:34.461Z,99243.00
2022-09-20T18:47:05.751Z,99243.80
2022-09-20T18:49:34.407Z,99246.80
2022-09-20T18:52:03.625Z,99250.20
2022-09-20T18:54:32.143Z,99257.40
2022-09-20T18:57:00.187Z,99259.80
2022-09-20T18:59:28.947Z,99268.80
2022-09-20T19:02:30.611Z,99270.20
2022-09-20T19:05:17.268Z,99276.20
2022-09-20T19:08:06.309Z,99281.80
2022-09-20T19:11:04.142Z,99284.00
2022-09-20T19:14:00.808Z,99288.00
2022-09-20T19:16:36.797Z,99303.40
2022-09-20T19:19:28.196Z,99304.80
2022-09-20T19:22:35.983Z,99307.60
2022-09-20T19:25:29.918Z,99294.00
2022-09-20T19:27:58.144Z,99291.80
2022-09-20T19:30:26.255Z,99298.00
2022-09-20T19:32:54.328Z,99290.40
2022-09-20T19:35:35.231Z,99291.20
2022-09-20T19:38:35.980Z,99292.40
2022-09-20T19:41:39.822Z,99290.00
2022-09-20T19:44:45.880Z,99286.20
2022-09-20T19:48:00.707Z,99279.00
2022-09-20T19:50:46.588Z,99282.80
2022-09-20T19:53:17.599Z,99281.60
2022-09-20T19:55:55.335Z,99284.80
2022-09-20T19:58:23.509Z,99280.80
2022-09-20T20:00:51.815Z,99283.00
2022-09-20T20:03:20.080Z,99288.20
2022-09-20T20:06:28.434Z,99289.60
2022-09-20T20:09:25.270Z,99287.40
2022-09-20T20:12:26.072Z,99289.20
2022-09-20T20:15:16.148Z,99286.60
2022-09-20T20:18:04.798Z,99287.20
2022-09-20T20:20:44.109Z,99282.60
2022-09-20T20:23:54.516Z,99287.20
2022-09-20T20:26:25.547Z,99291.80
2022-09-20T20:28:53.903Z,99294.60
2022-09-20T20:31:22.999Z,99299.60
2022-09-20T20:33:50.619Z,99301.60
2022-09-20T20:36:18.205Z,99297.40
2022-09-20T20:38:49.853Z,99301.80
2022-09-20T20:41:21.691Z,99300.00
2022-09-20T20:43:56.371Z,99305.20
2022-09-20T20:46:25.086Z,99309.60
2022-09-20T20:48:52.833Z,99313.40
2022-09-20T20:51:22.803Z,99315.80
2022-09-20T20:53:53.845Z,99312.80
2022-09-20T20:56:28.595Z,99317.80
2022-09-20T20:59:01.475Z,99319.80
2022-09-20T21:01:45.971Z,99325.40
2022-09-20T21:04:15.642Z,99327.60
2022-09-20T21:06:43.334Z,99330.20
2022-09-20T21:09:11.941Z,99324.80
2022-09-20T21:11:44.444Z,99327.40
2022-09-20T21:14:13.026Z,99326.60
2022-09-20T21:16:43.484Z,99328.20
2022-09-20T21:19:15.660Z,99328.80
2022-09-20T21:21:47.140Z,99327.40
2022-09-20T21:24:19.309Z,99328.00
2022-09-20T21:26:47.639Z,99330.40
2022-09-20T21:29:16.714Z,99332.60
2022-09-20T21:31:46.692Z,99332.60
2022-09-20T21:34:16.407Z,99334.20
2022-09-20T21:36:47.212Z,99334.80
2022-09-20T21:39:14.823Z,99343.00
2022-09-20T21:41:42.703Z,99337.40
2022-09-20T21:44:10.793Z,99338.60
2022-09-20T21:46:41.461Z,99336.60
2022-09-20T21:49:11.766Z,99339.60
2022-09-20T21:51:42.676Z,99336.00
2022-09-20T21:54:10.986Z,99333.80
2022-09-20T21:56:40.477Z,99331.60
2022-09-20T21:59:08.479Z,99332.00
2022-09-20T22:01:40.233Z,99329.80
2022-09-20T22:04:12.036Z,99332.40
2022-09-20T22:06:44.795Z,99334.00
2022-09-20T22:09:16.287Z,99333.20
2022-09-20T22:11:48.924Z,99329.20
2022-09-20T22:14:19.684Z,99328.80
2022-09-20T22:16:51.174Z,99332.00
2022-09-20T22:19:19.210Z,99331.80
2022-09-20T22:21:49.830Z,99333.80
2022-09-20T22:24:18.909Z,99336.40
2022-09-20T22:26:50.035Z,99336.80
2022-09-20T22:29:18.545Z,99336.40
2022-09-20T22:31:50.063Z,99348.60
2022-09-20T22:34:21.831Z,99343.60
2022-09-20T22:36:50.348Z,99345.60
2022-09-20T22:39:18.155Z,99345.20
2022-09-20T22:41:48.109Z,99348.40
2022-09-20T22:44:16.298Z,99346.40
2022-09-20T22:46:44.410Z,99343.60
2022-09-20T22:49:11.981Z,99346.20
2022-09-20T22:51:39.737Z,99348.40
2022-09-20T22:54:10.836Z,99342.40
2022-09-20T22:56:42.427Z,99341.40
2022-09-20T22:59:13.613Z,99347.40
2022-09-20T23:01:45.289Z,99347.20
2022-09-20T23:04:17.223Z,99344.80
2022-09-20T23:06:54.553Z,99348.00
2022-09-20T23:09:28.277Z,99345.00
2022-09-20T23:11:56.554Z,99345.00
2022-09-20T23:14:24.258Z,99349.80
2022-09-20T23:16:52.935Z,99348.40
2022-09-20T23:19:20.624Z,99353.00
2022-09-20T23:21:48.288Z,99349.00
2022-09-20T23:24:16.726Z,99354.60
2022-09-20T23:26:45.101Z,99353.20
2022-09-20T23:29:16.989Z,99354.40
2022-09-20T23:31:47.492Z,99354.00
2022-09-20T23:34:17.369Z,99355.60
2022-09-20T23:36:46.564Z,99354.40
2022-09-20T23:39:15.388Z,99357.60
2022-09-20T23:41:47.034Z,99355.80
2022-09-20T23:44:18.229Z,99353.60
2022-09-20T23:46:45.866Z,99356.20
2022-09-20T23:49:13.619Z,99354.60
2022-09-20T23:51:41.201Z,99357.40
2022-09-20T23:54:08.842Z,99358.40
2022-09-20T23:56:37.079Z,99362.20
2022-09-20T23:59:04.643Z,99361.00
